sensor_id;sensor_type;location;lat;lon;timestamp;pressure;altitude;pressure_sealevel;temperature;humidity
62508;BME280;48556;51.972;4.624;2023-04-25T00:02:11;76990.91;;;-146.23;51.93
62508;BME280;48556;51.972;4.624;2023-04-25T00:05:17;77019.00;;;-146.23;52.45
62508;BME280;48556;51.972;4.624;2023-04-25T00:08:27;76938.66;;;-146.23;51.23
62508;BME280;48556;51.972;4.624;2023-04-25T00:10:53;76932.66;;;-146.23;51.25
62508;BME280;48556;51.972;4.624;2023-04-25T00:13:18;76912.56;;;-146.23;50.53
62508;BME280;48556;51.972;4.624;2023-04-25T00:15:58;76890.47;;;-146.23;50.12
62508;BME280;48556;51.972;4.624;2023-04-25T00:19:02;76910.56;;;-146.23;50.23
62508;BME280;48556;51.972;4.624;2023-04-25T00:21:30;76884.44;;;-146.23;49.78
62508;BME280;48556;51.972;4.624;2023-04-25T00:24:07;76874.41;;;-146.23;49.60
62508;BME280;48556;51.972;4.624;2023-04-25T00:26:43;76884.44;;;-146.23;49.32
62508;BME280;48556;51.972;4.624;2023-04-25T00:29:09;76902.53;;;-146.23;49.56
62508;BME280;48556;51.972;4.624;2023-04-25T00:31:35;76906.53;;;-146.23;49.45
62508;BME280;48556;51.972;4.624;2023-04-25T00:34:06;76902.53;;;-146.23;49.38
62508;BME280;48556;51.972;4.624;2023-04-25T00:36:54;76886.44;;;-146.23;49.16
62508;BME280;48556;51.972;4.624;2023-04-25T00:39:52;76864.34;;;-146.23;48.35
62508;BME280;48556;51.972;4.624;2023-04-25T00:42:35;76862.34;;;-146.23;48.25
62508;BME280;48556;51.972;4.624;2023-04-25T00:45:16;76868.38;;;-146.23;48.57
62508;BME280;48556;51.972;4.624;2023-04-25T00:48:05;76866.38;;;-146.23;48.66
62508;BME280;48556;51.972;4.624;2023-04-25T00:50:30;76898.50;;;-146.23;49.12
62508;BME280;48556;51.972;4.624;2023-04-25T00:53:30;76918.59;;;-146.23;49.41
62508;BME280;48556;51.972;4.624;2023-04-25T00:56:33;77023.03;;;-146.23;51.37
62508;BME280;48556;51.972;4.624;2023-04-25T01:02:50;76938.66;;;-146.23;49.89
62508;BME280;48556;51.972;4.624;2023-04-25T01:05:43;76902.53;;;-146.23;49.61
62508;BME280;48556;51.972;4.624;2023-04-25T01:08:23;76902.53;;;-146.23;49.53
62508;BME280;48556;51.972;4.624;2023-04-25T01:10:57;76912.56;;;-146.23;49.46
62508;BME280;48556;51.972;4.624;2023-04-25T01:13:23;76890.47;;;-146.23;49.42
62508;BME280;48556;51.972;4.624;2023-04-25T01:15:50;76886.44;;;-146.23;49.27
62508;BME280;48556;51.972;4.624;2023-04-25T01:18:32;76876.41;;;-146.23;49.14
62508;BME280;48556;51.972;4.624;2023-04-25T01:21:07;76922.59;;;-146.23;49.58
62508;BME280;48556;51.972;4.624;2023-04-25T01:23:47;76876.41;;;-146.23;49.35
62508;BME280;48556;51.972;4.624;2023-04-25T01:26:14;76866.38;;;-146.23;48.87
62508;BME280;48556;51.972;4.624;2023-04-25T01:28:40;76858.34;;;-146.23;48.81
62508;BME280;48556;51.972;4.624;2023-04-25T01:31:06;76842.25;;;-146.23;48.32
62508;BME280;48556;51.972;4.624;2023-04-25T01:34:04;76858.34;;;-146.23;48.27
62508;BME280;48556;51.972;4.624;2023-04-25T01:36:30;76860.34;;;-146.23;48.29
62508;BME280;48556;51.972;4.624;2023-04-25T01:38:56;76872.38;;;-146.23;48.48
62508;BME280;48556;51.972;4.624;2023-04-25T01:41:56;76864.34;;;-146.23;48.35
62508;BME280;48556;51.972;4.624;2023-04-25T01:44:22;76870.38;;;-146.23;48.33
62508;BME280;48556;51.972;4.624;2023-04-25T01:46:51;76872.38;;;-146.23;48.38
62508;BME280;48556;51.972;4.624;2023-04-25T01:49:17;76882.44;;;-146.23;48.42
62508;BME280;48556;51.972;4.624;2023-04-25T01:51:44;76874.41;;;-146.23;48.25
62508;BME280;48556;51.972;4.624;2023-04-25T01:54:12;76912.56;;;-146.23;48.52
62508;BME280;48556;51.972;4.624;2023-04-25T02:00:28;76910.56;;;-146.23;47.81
62508;BME280;48556;51.972;4.624;2023-04-25T02:03:23;76934.66;;;-146.23;47.94
62508;BME280;48556;51.972;4.624;2023-04-25T02:05:52;76938.66;;;-146.23;47.67
62508;BME280;48556;51.972;4.624;2023-04-25T02:08:50;76932.66;;;-146.23;47.15
62508;BME280;48556;51.972;4.624;2023-04-25T02:11:15;76958.75;;;-146.23;47.37
62508;BME280;48556;51.972;4.624;2023-04-25T02:13:45;76944.69;;;-146.23;47.11
62508;BME280;48556;51.972;4.624;2023-04-25T02:16:11;76926.63;;;-146.23;47.17
62508;BME280;48556;51.972;4.624;2023-04-25T02:18:41;76926.63;;;-146.23;46.91
62508;BME280;48556;51.972;4.624;2023-04-25T02:21:46;76908.53;;;-146.23;46.02
62508;BME280;48556;51.972;4.624;2023-04-25T02:24:56;76910.56;;;-146.23;45.54
62508;BME280;48556;51.972;4.624;2023-04-25T02:27:34;76892.47;;;-146.23;45.45
62508;BME280;48556;51.972;4.624;2023-04-25T02:30:27;76902.53;;;-146.23;45.62
62508;BME280;48556;51.972;4.624;2023-04-25T02:32:53;76894.47;;;-146.23;45.49
62508;BME280;48556;51.972;4.624;2023-04-25T02:35:19;76870.38;;;-146.23;44.89
62508;BME280;48556;51.972;4.624;2023-04-25T02:37:44;76898.50;;;-146.23;45.13
62508;BME280;48556;51.972;4.624;2023-04-25T02:40:24;76904.53;;;-146.23;45.02
62508;BME280;48556;51.972;4.624;2023-04-25T02:43:02;76942.69;;;-146.23;45.49
62508;BME280;48556;51.972;4.624;2023-04-25T02:49:30;76914.56;;;-146.23;45.73
62508;BME280;48556;51.972;4.624;2023-04-25T02:51:56;76886.44;;;-146.23;45.34
62508;BME280;48556;51.972;4.624;2023-04-25T02:54:53;76894.47;;;-146.23;45.03
62508;BME280;48556;51.972;4.624;2023-04-25T02:57:48;76894.47;;;-146.23;45.31
62508;BME280;48556;51.972;4.624;2023-04-25T03:00:29;76884.44;;;-146.23;45.41
62508;BME280;48556;51.972;4.624;2023-04-25T03:03:50;76872.38;;;-146.23;45.43
62508;BME280;48556;51.972;4.624;2023-04-25T03:06:45;76872.38;;;-146.23;45.39
62508;BME280;48556;51.972;4.624;2023-04-25T03:09:54;76858.34;;;-146.23;45.44
62508;BME280;48556;51.972;4.624;2023-04-25T03:16:07;77061.19;;;-146.23;45.87
62508;BME280;48556;51.972;4.624;2023-04-25T03:18:55;77002.94;;;-146.23;45.26
62508;BME280;48556;51.972;4.624;2023-04-25T03:21:21;76956.75;;;-146.23;45.38
62508;BME280;48556;51.972;4.624;2023-04-25T03:24:08;76950.72;;;-146.23;45.09
62508;BME280;48556;51.972;4.624;2023-04-25T03:27:10;76910.56;;;-146.23;44.70
62508;BME280;48556;51.972;4.624;2023-04-25T03:29:59;76910.56;;;-146.23;45.27
62508;BME280;48556;51.972;4.624;2023-04-25T03:32:36;76882.44;;;-146.23;44.85
62508;BME280;48556;51.972;4.624;2023-04-25T03:35:11;76882.44;;;-146.23;45.21
62508;BME280;48556;51.972;4.624;2023-04-25T03:37:36;76954.75;;;-146.23;46.65
62508;BME280;48556;51.972;4.624;2023-04-25T03:40:30;76972.81;;;-146.23;46.57
62508;BME280;48556;51.972;4.624;2023-04-25T03:42:56;76994.91;;;-146.23;47.72
62508;BME280;48556;51.972;4.624;2023-04-25T03:45:21;76982.84;;;-146.23;47.50
62508;BME280;48556;51.972;4.624;2023-04-25T03:48:45;76962.78;;;-146.23;46.98
62508;BME280;48556;51.972;4.624;2023-04-25T03:51:50;76964.78;;;-146.23;47.44
62508;BME280;48556;51.972;4.624;2023-04-25T03:54:21;76980.84;;;-146.23;48.17
62508;BME280;48556;51.972;4.624;2023-04-25T03:57:30;76934.66;;;-146.23;47.77
62508;BME280;48556;51.972;4.624;2023-04-25T04:00:16;76920.59;;;-146.23;47.86
62508;BME280;48556;51.972;4.624;2023-04-25T04:02:51;76900.50;;;-146.23;47.92
62508;BME280;48556;51.972;4.624;2023-04-25T04:05:17;76958.75;;;-146.23;48.25
62508;BME280;48556;51.972;4.624;2023-04-25T04:07:54;76964.78;;;-146.23;49.08
62508;BME280;48556;51.972;4.624;2023-04-25T04:10:21;76946.72;;;-146.23;49.00
62508;BME280;48556;51.972;4.624;2023-04-25T04:13:25;76926.63;;;-146.23;48.83
62508;BME280;48556;51.972;4.624;2023-04-25T04:15:56;76890.47;;;-146.23;48.29
62508;BME280;48556;51.972;4.624;2023-04-25T04:18:32;76870.38;;;-146.23;48.34
62508;BME280;48556;51.972;4.624;2023-04-25T04:20:59;76862.34;;;-146.23;47.88
62508;BME280;48556;51.972;4.624;2023-04-25T04:23:25;76858.34;;;-146.23;47.73
62508;BME280;48556;51.972;4.624;2023-04-25T04:25:58;76870.38;;;-146.23;47.73
62508;BME280;48556;51.972;4.624;2023-04-25T04:28:30;76870.38;;;-146.23;47.90
62508;BME280;48556;51.972;4.624;2023-04-25T04:31:01;76870.38;;;-146.23;47.83
62508;BME280;48556;51.972;4.624;2023-04-25T04:33:30;76872.38;;;-146.23;47.79
62508;BME280;48556;51.972;4.624;2023-04-25T04:35:58;76850.28;;;-146.23;47.42
62508;BME280;48556;51.972;4.624;2023-04-25T04:38:25;76882.44;;;-146.23;48.04
62508;BME280;48556;51.972;4.624;2023-04-25T04:40:51;76876.41;;;-146.23;47.83
62508;BME280;48556;51.972;4.624;2023-04-25T04:43:18;76900.50;;;-146.23;48.09
62508;BME280;48556;51.972;4.624;2023-04-25T04:46:01;76874.41;;;-146.23;47.92
62508;BME280;48556;51.972;4.624;2023-04-25T04:49:06;76854.31;;;-146.23;47.69
62508;BME280;48556;51.972;4.624;2023-04-25T04:51:45;76846.28;;;-146.23;47.42
62508;BME280;48556;51.972;4.624;2023-04-25T04:54:13;76862.34;;;-146.23;48.06
62508;BME280;48556;51.972;4.624;2023-04-25T04:56:39;76944.69;;;-146.23;48.68
62508;BME280;48556;51.972;4.624;2023-04-25T04:59:05;76974.81;;;-146.23;49.04
62508;BME280;48556;51.972;4.624;2023-04-25T05:01:39;77039.09;;;-146.23;48.89
62508;BME280;48556;51.972;4.624;2023-04-25T05:07:39;77117.44;;;-146.23;50.94
62508;BME280;48556;51.972;4.624;2023-04-25T05:10:06;77051.16;;;-146.23;50.30
62508;BME280;48556;51.972;4.624;2023-04-25T05:12:32;77023.03;;;-146.23;50.01
62508;BME280;48556;51.972;4.624;2023-04-25T05:14:58;77035.09;;;-146.23;50.17
62508;BME280;48556;51.972;4.624;2023-04-25T05:17:24;77045.13;;;-146.23;50.46
62508;BME280;48556;51.972;4.624;2023-04-25T05:19:54;76966.78;;;-146.23;49.10
62508;BME280;48556;51.972;4.624;2023-04-25T05:22:22;76914.56;;;-146.23;48.03
62508;BME280;48556;51.972;4.624;2023-04-25T05:24:48;76896.50;;;-146.23;47.64
62508;BME280;48556;51.972;4.624;2023-04-25T05:27:35;76892.47;;;-146.23;46.93
62508;BME280;48556;51.972;4.624;2023-04-25T05:30:19;76882.44;;;-146.23;46.58
62508;BME280;48556;51.972;4.624;2023-04-25T05:32:47;76862.34;;;-146.23;46.11
62508;BME280;48556;51.972;4.624;2023-04-25T05:35:50;76878.41;;;-146.23;46.06
62508;BME280;48556;51.972;4.624;2023-04-25T05:38:26;76874.41;;;-146.23;45.66
62508;BME280;48556;51.972;4.624;2023-04-25T05:41:20;76884.44;;;-146.23;46.09
62508;BME280;48556;51.972;4.624;2023-04-25T05:44:07;76878.41;;;-146.23;45.77
62508;BME280;48556;51.972;4.624;2023-04-25T05:47:00;76870.38;;;-146.23;45.63
62508;BME280;48556;51.972;4.624;2023-04-25T05:49:39;76942.69;;;-146.23;46.16
62508;BME280;48556;51.972;4.624;2023-04-25T05:52:07;76926.63;;;-146.23;45.75
62508;BME280;48556;51.972;4.624;2023-04-25T05:54:33;76956.75;;;-146.23;45.43
62508;BME280;48556;51.972;4.624;2023-04-25T05:57:22;76994.91;;;-146.23;46.50
62508;BME280;48556;51.972;4.624;2023-04-25T05:59:51;77000.94;;;-146.23;47.15
62508;BME280;48556;51.972;4.624;2023-04-25T06:02:27;77035.09;;;-146.23;47.22
62508;BME280;48556;51.972;4.624;2023-04-25T06:04:53;77103.38;;;-146.23;47.85
62508;BME280;48556;51.972;4.624;2023-04-25T06:07:22;77089.31;;;-146.23;48.18
62508;BME280;48556;51.972;4.624;2023-04-25T06:09:48;77083.28;;;-146.23;47.87
62508;BME280;48556;51.972;4.624;2023-04-25T06:12:16;77141.53;;;-146.23;47.78
62508;BME280;48556;51.972;4.624;2023-04-25T06:14:50;77183.72;;;-146.23;48.33
62508;BME280;48556;51.972;4.624;2023-04-25T06:17:15;77310.28;;;-146.23;49.92
62508;BME280;48556;51.972;4.624;2023-04-25T06:19:42;77312.28;;;-146.23;49.22
62508;BME280;48556;51.972;4.624;2023-04-25T06:22:34;77306.25;;;-146.23;50.47
62508;BME280;48556;51.972;4.624;2023-04-25T06:25:07;77332.38;;;-146.23;52.49
62508;BME280;48556;51.972;4.624;2023-04-25T06:27:34;77350.44;;;-146.23;52.08
62508;BME280;48556;51.972;4.624;2023-04-25T06:30:00;77300.22;;;-146.23;52.52
62508;BME280;48556;51.972;4.624;2023-04-25T06:32:26;77268.09;;;-146.23;51.09
62508;BME280;48556;51.972;4.624;2023-04-25T06:35:33;77227.91;;;-146.23;51.61
62508;BME280;48556;51.972;4.624;2023-04-25T06:38:06;77175.69;;;-146.23;50.91
62508;BME280;48556;51.972;4.624;2023-04-25T06:40:32;77119.44;;;-146.23;49.23
62508;BME280;48556;51.972;4.624;2023-04-25T06:43:04;77067.22;;;-146.23;47.71
62508;BME280;48556;51.972;4.624;2023-04-25T06:45:31;77047.13;;;-146.23;47.49
62508;BME280;48556;51.972;4.624;2023-04-25T06:48:23;77091.31;;;-146.23;49.00
62508;BME280;48556;51.972;4.624;2023-04-25T06:50:51;77107.41;;;-146.23;49.78
62508;BME280;48556;51.972;4.624;2023-04-25T06:53:30;77119.44;;;-146.23;49.72
62508;BME280;48556;51.972;4.624;2023-04-25T06:56:05;77069.22;;;-146.23;49.40
62508;BME280;48556;51.972;4.624;2023-04-25T06:59:17;77027.06;;;-146.23;47.94
62508;BME280;48556;51.972;4.624;2023-04-25T07:01:53;77039.09;;;-146.23;47.79
62508;BME280;48556;51.972;4.624;2023-04-25T07:04:19;76938.66;;;-146.23;46.05
62508;BME280;48556;51.972;4.624;2023-04-25T07:06:45;76974.81;;;-146.23;47.27
62508;BME280;48556;51.972;4.624;2023-04-25T07:09:37;76906.53;;;-146.23;45.72
62508;BME280;48556;51.972;4.624;2023-04-25T07:12:34;76896.50;;;-146.23;43.60
62508;BME280;48556;51.972;4.624;2023-04-25T07:15:00;76912.56;;;-146.23;44.75
62508;BME280;48556;51.972;4.624;2023-04-25T07:17:33;76924.63;;;-146.23;44.31
62508;BME280;48556;51.972;4.624;2023-04-25T07:20:05;76914.56;;;-146.23;44.15
62508;BME280;48556;51.972;4.624;2023-04-25T07:22:53;76914.56;;;-146.23;43.90
62508;BME280;48556;51.972;4.624;2023-04-25T07:26:03;76944.69;;;-146.23;43.48
62508;BME280;48556;51.972;4.624;2023-04-25T07:29:19;76988.88;;;-146.23;43.80
62508;BME280;48556;51.972;4.624;2023-04-25T07:31:44;77006.97;;;-146.23;43.53
62508;BME280;48556;51.972;4.624;2023-04-25T07:34:14;76986.88;;;-146.23;43.92
62508;BME280;48556;51.972;4.624;2023-04-25T07:36:39;77027.06;;;-146.23;44.46
62508;BME280;48556;51.972;4.624;2023-04-25T07:39:17;77035.09;;;-146.23;45.27
62508;BME280;48556;51.972;4.624;2023-04-25T07:41:42;77091.31;;;-146.23;46.44
62508;BME280;48556;51.972;4.624;2023-04-25T07:44:08;77031.06;;;-146.23;46.07
62508;BME280;48556;51.972;4.624;2023-04-25T07:46:47;77027.06;;;-146.23;46.52
62508;BME280;48556;51.972;4.624;2023-04-25T07:49:13;77079.28;;;-146.23;45.71
62508;BME280;48556;51.972;4.624;2023-04-25T07:51:38;77055.16;;;-146.23;44.73
62508;BME280;48556;51.972;4.624;2023-04-25T07:54:28;77019.00;;;-146.23;44.93
62508;BME280;48556;51.972;4.624;2023-04-25T07:56:54;77006.97;;;-146.23;45.93
62508;BME280;48556;51.972;4.624;2023-04-25T07:59:24;77035.09;;;-146.23;45.63
62508;BME280;48556;51.972;4.624;2023-04-25T08:01:51;77010.97;;;-146.23;44.31
62508;BME280;48556;51.972;4.624;2023-04-25T08:04:19;77071.25;;;-146.23;43.69
62508;BME280;48556;51.972;4.624;2023-04-25T08:06:44;77131.50;;;-146.23;43.99
62508;BME280;48556;51.972;4.624;2023-04-25T08:09:42;77131.50;;;-146.23;42.71
62508;BME280;48556;51.972;4.624;2023-04-25T08:12:25;77131.50;;;-146.23;42.01
62508;BME280;48556;51.972;4.624;2023-04-25T08:14:51;77121.44;;;-146.23;41.86
62508;BME280;48556;51.972;4.624;2023-04-25T08:17:20;77147.56;;;-146.23;42.05
62508;BME280;48556;51.972;4.624;2023-04-25T08:19:50;77137.53;;;-146.23;42.12
62508;BME280;48556;51.972;4.624;2023-04-25T08:22:16;77129.50;;;-146.23;41.78
62508;BME280;48556;51.972;4.624;2023-04-25T08:24:44;77089.31;;;-146.23;40.71
62508;BME280;48556;51.972;4.624;2023-04-25T08:27:39;77039.09;;;-146.23;40.05
62508;BME280;48556;51.972;4.624;2023-04-25T08:30:29;77006.97;;;-146.23;40.13
62508;BME280;48556;51.972;4.624;2023-04-25T08:32:55;77019.00;;;-146.23;39.91
62508;BME280;48556;51.972;4.624;2023-04-25T08:35:21;77105.38;;;-146.23;39.32
62508;BME280;48556;51.972;4.624;2023-04-25T08:38:02;77117.44;;;-146.23;39.45
62508;BME280;48556;51.972;4.624;2023-04-25T08:40:28;77143.56;;;-146.23;40.21
62508;BME280;48556;51.972;4.624;2023-04-25T08:42:58;77157.59;;;-146.23;41.22
62508;BME280;48556;51.972;4.624;2023-04-25T08:45:35;77185.72;;;-146.23;41.07
62508;BME280;48556;51.972;4.624;2023-04-25T08:48:12;77141.53;;;-146.23;41.61
62508;BME280;48556;51.972;4.624;2023-04-25T08:51:09;77111.41;;;-146.23;41.48
62508;BME280;48556;51.972;4.624;2023-04-25T08:53:44;77051.16;;;-146.23;41.37
62508;BME280;48556;51.972;4.624;2023-04-25T08:56:31;77047.13;;;-146.23;41.17
62508;BME280;48556;51.972;4.624;2023-04-25T08:59:15;77143.56;;;-146.23;41.82
62508;BME280;48556;51.972;4.624;2023-04-25T09:01:46;77169.66;;;-146.23;41.22
62508;BME280;48556;51.972;4.624;2023-04-25T09:04:18;77169.66;;;-146.23;40.36
62508;BME280;48556;51.972;4.624;2023-04-25T09:06:45;77167.66;;;-146.23;39.63
62508;BME280;48556;51.972;4.624;2023-04-25T09:09:12;77175.69;;;-146.23;39.60
62508;BME280;48556;51.972;4.624;2023-04-25T09:11:37;77159.63;;;-146.23;40.98
62508;BME280;48556;51.972;4.624;2023-04-25T09:14:19;77155.59;;;-146.23;40.56
62508;BME280;48556;51.972;4.624;2023-04-25T09:19:23;77041.09;;;-146.23;39.90
62508;BME280;48556;51.972;4.624;2023-04-25T09:21:50;77055.16;;;-146.23;38.55
62508;BME280;48556;51.972;4.624;2023-04-25T09:24:16;77087.31;;;-146.23;38.91
62508;BME280;48556;51.972;4.624;2023-04-25T09:26:44;77031.06;;;-146.23;38.90
62508;BME280;48556;51.972;4.624;2023-04-25T09:29:11;77035.09;;;-146.23;38.10
62508;BME280;48556;51.972;4.624;2023-04-25T09:31:36;77043.13;;;-146.23;37.52
62508;BME280;48556;51.972;4.624;2023-04-25T09:34:09;77059.19;;;-146.23;38.40
62508;BME280;48556;51.972;4.624;2023-04-25T09:36:44;77109.41;;;-146.23;42.60
62508;BME280;48556;51.972;4.624;2023-04-25T09:39:12;77141.53;;;-146.23;44.87
62508;BME280;48556;51.972;4.624;2023-04-25T09:42:08;77111.41;;;-146.23;44.85
62508;BME280;48556;51.972;4.624;2023-04-25T09:44:49;77093.34;;;-146.23;44.36
62508;BME280;48556;51.972;4.624;2023-04-25T09:47:17;77121.44;;;-146.23;43.30
62508;BME280;48556;51.972;4.624;2023-04-25T09:49:46;77047.13;;;-146.23;43.19
62508;BME280;48556;51.972;4.624;2023-04-25T09:52:19;77075.25;;;-146.23;42.09
62508;BME280;48556;51.972;4.624;2023-04-25T09:55:03;77097.34;;;-146.23;43.28
62508;BME280;48556;51.972;4.624;2023-04-25T09:57:49;77115.44;;;-146.23;43.63
62508;BME280;48556;51.972;4.624;2023-04-25T10:00:18;77049.16;;;-146.23;43.58
62508;BME280;48556;51.972;4.624;2023-04-25T10:03:13;77057.19;;;-146.23;43.10
62508;BME280;48556;51.972;4.624;2023-04-25T10:06:16;76996.91;;;-146.23;41.64
62508;BME280;48556;51.972;4.624;2023-04-25T10:08:44;76962.78;;;-146.23;41.47
62508;BME280;48556;51.972;4.624;2023-04-25T10:11:10;76962.78;;;-146.23;41.45
62508;BME280;48556;51.972;4.624;2023-04-25T10:13:56;76930.63;;;-146.23;40.88
62508;BME280;48556;51.972;4.624;2023-04-25T10:16:50;77019.00;;;-146.23;39.97
62508;BME280;48556;51.972;4.624;2023-04-25T10:19:19;77047.13;;;-146.23;40.03
62508;BME280;48556;51.972;4.624;2023-04-25T10:22:07;77095.34;;;-146.23;39.81
62508;BME280;48556;51.972;4.624;2023-04-25T10:24:58;77041.09;;;-146.23;40.96
62508;BME280;48556;51.972;4.624;2023-04-25T10:27:27;77051.16;;;-146.23;40.39
62508;BME280;48556;51.972;4.624;2023-04-25T10:30:13;77091.31;;;-146.23;40.88
62508;BME280;48556;51.972;4.624;2023-04-25T10:32:44;77039.09;;;-146.23;40.99
62508;BME280;48556;51.972;4.624;2023-04-25T10:35:28;76966.78;;;-146.23;40.15
62508;BME280;48556;51.972;4.624;2023-04-25T10:38:00;76966.78;;;-146.23;39.24
62508;BME280;48556;51.972;4.624;2023-04-25T10:41:05;77013.00;;;-146.23;39.36
62508;BME280;48556;51.972;4.624;2023-04-25T10:43:43;77083.28;;;-146.23;39.43
62508;BME280;48556;51.972;4.624;2023-04-25T10:46:34;77043.13;;;-146.23;39.13
62508;BME280;48556;51.972;4.624;2023-04-25T10:49:43;77008.97;;;-146.23;38.38
62508;BME280;48556;51.972;4.624;2023-04-25T10:55:07;76950.72;;;-146.23;37.50
62508;BME280;48556;51.972;4.624;2023-04-25T10:57:40;76952.72;;;-146.23;36.61
62508;BME280;48556;51.972;4.624;2023-04-25T11:00:10;76948.72;;;-146.23;36.48
62508;BME280;48556;51.972;4.624;2023-04-25T11:02:53;77053.16;;;-146.23;35.66
62508;BME280;48556;51.972;4.624;2023-04-25T11:05:53;77071.25;;;-146.23;36.04
62508;BME280;48556;51.972;4.624;2023-04-25T11:08:48;77115.44;;;-146.23;36.33
62508;BME280;48556;51.972;4.624;2023-04-25T11:11:19;77051.16;;;-146.23;35.74
62508;BME280;48556;51.972;4.624;2023-04-25T11:13:48;76958.75;;;-146.23;35.48
62508;BME280;48556;51.972;4.624;2023-04-25T11:16:15;76906.53;;;-146.23;34.97
62508;BME280;48556;51.972;4.624;2023-04-25T11:18:53;76916.56;;;-146.23;34.14
62508;BME280;48556;51.972;4.624;2023-04-25T11:21:29;76888.47;;;-146.23;34.06
62508;BME280;48556;51.972;4.624;2023-04-25T11:24:01;76888.47;;;-146.23;34.19
62508;BME280;48556;51.972;4.624;2023-04-25T11:26:58;76820.16;;;-146.23;34.10
62508;BME280;48556;51.972;4.624;2023-04-25T11:29:29;76717.75;;;-146.23;33.17
62508;BME280;48556;51.972;4.624;2023-04-25T11:31:56;76671.53;;;-146.23;32.02
62508;BME280;48556;51.972;4.624;2023-04-25T11:34:34;76753.88;;;-146.23;32.64
62508;BME280;48556;51.972;4.624;2023-04-25T11:37:16;76753.88;;;-146.23;31.62
62508;BME280;48556;51.972;4.624;2023-04-25T11:40:03;76689.63;;;-146.23;31.40
62508;BME280;48556;51.972;4.624;2023-04-25T11:42:36;76615.31;;;-146.23;30.92
62508;BME280;48556;51.972;4.624;2023-04-25T11:45:17;76727.78;;;-146.23;31.87
62508;BME280;48556;51.972;4.624;2023-04-25T11:48:04;76715.72;;;-146.23;31.70
62508;BME280;48556;51.972;4.624;2023-04-25T11:51:01;76573.13;;;-146.23;30.42
62508;BME280;48556;51.972;4.624;2023-04-25T11:53:32;76516.91;;;-146.23;29.98
62508;BME280;48556;51.972;4.624;2023-04-25T11:56:18;76392.38;;;-146.23;30.16
62508;BME280;48556;51.972;4.624;2023-04-25T11:58:57;76541.00;;;-146.23;30.22
62508;BME280;48556;51.972;4.624;2023-04-25T12:02:02;76703.69;;;-146.23;31.63
62508;BME280;48556;51.972;4.624;2023-04-25T12:04:47;76798.06;;;-146.23;32.29
62508;BME280;48556;51.972;4.624;2023-04-25T12:07:13;76790.03;;;-146.23;32.30
62508;BME280;48556;51.972;4.624;2023-04-25T12:09:39;76659.50;;;-146.23;30.70
62508;BME280;48556;51.972;4.624;2023-04-25T12:12:27;76549.03;;;-146.23;30.21
62508;BME280;48556;51.972;4.624;2023-04-25T12:18:24;76404.44;;;-146.23;29.13
62508;BME280;48556;51.972;4.624;2023-04-25T12:21:04;76448.63;;;-146.23;28.17
62508;BME280;48556;51.972;4.624;2023-04-25T12:23:46;76422.50;;;-146.23;28.64
62508;BME280;48556;51.972;4.624;2023-04-25T12:26:52;76476.75;;;-146.23;29.29
62508;BME280;48556;51.972;4.624;2023-04-25T12:29:29;76689.63;;;-146.23;29.74
62508;BME280;48556;51.972;4.624;2023-04-25T12:32:16;76802.09;;;-146.23;31.39
62508;BME280;48556;51.972;4.624;2023-04-25T12:34:44;76810.13;;;-146.23;31.72
62508;BME280;48556;51.972;4.624;2023-04-25T12:37:28;76798.06;;;-146.23;30.63
62508;BME280;48556;51.972;4.624;2023-04-25T12:39:53;76778.00;;;-146.23;30.39
62508;BME280;48556;51.972;4.624;2023-04-25T12:42:22;76725.78;;;-146.23;29.79
62508;BME280;48556;51.972;4.624;2023-04-25T12:44:48;76569.13;;;-146.23;28.48
62508;BME280;48556;51.972;4.624;2023-04-25T12:47:53;76541.00;;;-146.23;28.21
62508;BME280;48556;51.972;4.624;2023-04-25T12:50:20;76263.88;;;-146.23;27.19
62508;BME280;48556;51.972;4.624;2023-04-25T12:52:55;76113.25;;;-146.23;26.33
62508;BME280;48556;51.972;4.624;2023-04-25T12:55:30;76247.78;;;-146.23;27.12
62508;BME280;48556;51.972;4.624;2023-04-25T12:58:00;76312.06;;;-146.23;28.15
62508;BME280;48556;51.972;4.624;2023-04-25T13:00:25;76438.56;;;-146.23;29.10
62508;BME280;48556;51.972;4.624;2023-04-25T13:03:18;76474.72;;;-146.23;29.40
62508;BME280;48556;51.972;4.624;2023-04-25T13:05:44;76555.06;;;-146.23;29.96
62508;BME280;48556;51.972;4.624;2023-04-25T13:08:10;76456.66;;;-146.23;29.53
62508;BME280;48556;51.972;4.624;2023-04-25T13:10:36;76424.53;;;-146.23;27.93
62508;BME280;48556;51.972;4.624;2023-04-25T13:13:03;76424.53;;;-146.23;27.59
62508;BME280;48556;51.972;4.624;2023-04-25T13:18:50;76277.91;;;-146.23;27.76
62508;BME280;48556;51.972;4.624;2023-04-25T13:21:15;76209.63;;;-146.23;26.30
62508;BME280;48556;51.972;4.624;2023-04-25T13:23:43;76183.53;;;-146.23;26.10
62508;BME280;48556;51.972;4.624;2023-04-25T13:26:11;76420.50;;;-146.23;27.59
62508;BME280;48556;51.972;4.624;2023-04-25T13:28:37;76565.09;;;-146.23;28.67
62508;BME280;48556;51.972;4.624;2023-04-25T13:31:03;76597.22;;;-146.23;29.04
62508;BME280;48556;51.972;4.624;2023-04-25T13:33:30;76460.66;;;-146.23;28.79
62508;BME280;48556;51.972;4.624;2023-04-25T13:36:25;76404.44;;;-146.23;28.98
62508;BME280;48556;51.972;4.624;2023-04-25T13:38:51;76456.66;;;-146.23;29.11
62508;BME280;48556;51.972;4.624;2023-04-25T13:41:17;76633.38;;;-146.23;30.71
62508;BME280;48556;51.972;4.624;2023-04-25T13:43:45;76659.50;;;-146.23;30.99
62508;BME280;48556;51.972;4.624;2023-04-25T13:46:19;76765.94;;;-146.23;31.85
62508;BME280;48556;51.972;4.624;2023-04-25T13:48:56;76828.19;;;-146.23;32.38
62508;BME280;48556;51.972;4.624;2023-04-25T13:51:24;76729.78;;;-146.23;32.94
62508;BME280;48556;51.972;4.624;2023-04-25T13:53:52;76675.56;;;-146.23;32.19
62508;BME280;48556;51.972;4.624;2023-04-25T13:56:18;76500.84;;;-146.23;30.61
62508;BME280;48556;51.972;4.624;2023-04-25T13:58:52;76374.31;;;-146.23;29.30
62508;BME280;48556;51.972;4.624;2023-04-25T14:01:18;76265.88;;;-146.23;28.22
62508;BME280;48556;51.972;4.624;2023-04-25T14:03:45;76197.59;;;-146.23;27.61